Time;durP1;ratioP1;P1;durP2;ratioP2;P2;SDS_P1;SDS_P2;PMS_P1;PMS_P2;Temp;Humidity;BMP_temperature;BMP_pressure;BME280_temperature;BME280_humidity;BME280_pressure;Samples;Min_cycle;Max_cycle;Signal;HPM_P1;HPM_P2
2022/03/02 00:02:08;;;;;;;23.83;14.90;;;5.00;99.90;;;;;;6178725;23;20345;-84
2022/03/02 00:04:33;;;;;;;24.83;13.85;;;4.80;99.90;;;;;;6153727;23;20347;-84
2022/03/02 00:06:59;;;;;;;27.95;14.02;;;4.50;99.90;;;;;;6178553;23;20025;-83
2022/03/02 00:09:25;;;;;;;25.15;13.30;;;4.70;99.90;;;;;;6179550;23;20024;-83
2022/03/02 00:11:51;;;;;;;29.63;14.30;;;4.50;99.90;;;;;;6180641;23;20031;-83
2022/03/02 00:14:16;;;;;;;32.40;15.30;;;4.50;99.90;;;;;;6155254;23;20029;-83
2022/03/02 00:16:42;;;;;;;26.13;14.50;;;4.50;99.90;;;;;;6158549;23;20072;-83
2022/03/02 00:19:08;;;;;;;25.23;14.02;;;4.50;99.90;;;;;;6182770;23;20017;-83
2022/03/02 00:21:35;;;;;;;;;;;4.60;99.90;;;;;;6160045;23;20025;-84
2022/03/02 00:24:03;;;;;;;24.67;13.45;;;4.50;99.90;;;;;;6184408;23;19955;-83
2022/03/02 00:26:30;;;;;;;22.02;12.98;;;5.70;99.90;;;;;;6186318;23;20052;-83
2022/03/02 00:28:56;;;;;;;27.38;13.68;;;4.80;99.90;;;;;;6186251;23;20048;-83
2022/03/02 00:31:22;;;;;;;25.60;12.63;;;4.40;99.90;;;;;;6188355;23;20326;-83
2022/03/02 00:33:48;;;;;;;31.20;14.85;;;5.10;99.90;;;;;;6157475;23;20025;-84
2022/03/02 00:36:14;;;;;;;23.63;13.57;;;4.40;99.90;;;;;;6158695;23;20017;-83
2022/03/02 00:38:39;;;;;;;29.58;14.32;;;4.40;99.90;;;;;;6182973;23;20017;-84
2022/03/02 00:41:05;;;;;;;27.92;14.57;;;5.00;99.90;;;;;;6158774;23;20024;-83
2022/03/02 00:43:31;;;;;;;34.88;16.58;;;4.40;99.90;;;;;;6183056;23;20103;-83
2022/03/02 00:45:56;;;;;;;27.85;15.38;;;5.60;99.90;;;;;;6183694;23;20031;-84
2022/03/02 00:48:22;;;;;;;22.08;13.80;;;4.30;99.90;;;;;;6181926;23;20029;-83
2022/03/02 00:50:48;;;;;;;29.67;14.82;;;4.30;99.90;;;;;;6183894;23;20048;-83
2022/03/02 00:53:14;;;;;;;;;;;4.30;99.90;;;;;;6158243;23;20021;-84
2022/03/02 00:55:40;;;;;;;25.92;14.88;;;4.40;99.90;;;;;;6186754;23;19970;-83
2022/03/02 00:58:06;;;;;;;26.20;13.95;;;4.40;99.90;;;;;;6159909;23;20017;-84
2022/03/02 01:00:32;;;;;;;24.67;13.85;;;4.50;99.90;;;;;;6185049;23;20088;-83
2022/03/02 01:02:58;;;;;;;31.38;14.88;;;4.30;99.90;;;;;;6183404;23;20056;-83
2022/03/02 01:05:24;;;;;;;29.02;14.77;;;5.20;99.90;;;;;;6183558;23;20036;-82
2022/03/02 01:07:50;;;;;;;26.77;15.23;;;4.40;99.90;;;;;;6184273;23;20021;-83
2022/03/02 01:10:16;;;;;;;31.50;14.35;;;4.30;99.90;;;;;;6160529;23;20021;-83
2022/03/02 01:12:42;;;;;;;33.80;15.75;;;4.30;99.90;;;;;;6183554;23;20017;-83
2022/03/02 01:15:09;;;;;;;24.88;15.43;;;4.30;99.90;;;;;;6158154;23;20013;-82
2022/03/02 01:17:35;;;;;;;30.45;15.25;;;4.30;99.90;;;;;;6183730;23;20096;-82
2022/03/02 01:20:00;;;;;;;29.25;14.38;;;4.30;99.90;;;;;;6182230;23;20519;-83
2022/03/02 01:22:26;;;;;;;29.05;14.50;;;4.30;99.90;;;;;;6161557;23;20096;-83
2022/03/02 01:24:55;;;;;;;32.10;16.33;;;4.20;99.90;;;;;;6160372;23;20023;-82
2022/03/02 01:27:21;;;;;;;33.03;14.73;;;4.20;99.90;;;;;;6185343;23;20048;-83
2022/03/02 01:29:47;;;;;;;32.40;15.02;;;4.20;99.90;;;;;;6159463;23;20333;-85
2022/03/02 01:32:13;;;;;;;30.58;14.55;;;4.20;99.90;;;;;;6184162;23;20031;-83
2022/03/02 01:34:39;;;;;;;;;;;4.80;99.90;;;;;;6184065;23;20017;-82
2022/03/02 01:37:05;;;;;;;31.95;14.68;;;4.10;99.90;;;;;;6158414;23;19920;-82
2022/03/02 01:39:31;;;;;;;31.40;15.65;;;4.40;99.90;;;;;;6183414;23;20017;-84
2022/03/02 01:41:57;;;;;;;;;;;4.10;99.90;;;;;;6184117;23;20013;-82
2022/03/02 01:44:22;;;;;;;30.92;14.95;;;4.10;99.90;;;;;;6158132;23;20294;-82
2022/03/02 01:46:48;;;;;;;33.15;16.05;;;4.10;99.90;;;;;;6183408;23;20155;-83
2022/03/02 01:49:14;;;;;;;27.92;14.20;;;4.00;99.90;;;;;;6163546;23;20021;-82
2022/03/02 01:51:40;;;;;;;25.63;15.18;;;4.00;99.90;;;;;;6159950;23;20467;-84
2022/03/02 01:54:06;;;;;;;34.75;16.67;;;3.90;99.90;;;;;;6184537;23;20100;-81
2022/03/02 01:56:33;;;;;;;27.48;15.77;;;3.90;99.90;;;;;;6186429;23;20048;-83
2022/03/02 01:58:59;;;;;;;31.95;15.52;;;3.80;99.90;;;;;;6184118;23;20059;-83
2022/03/02 02:01:25;;;;;;;26.70;15.10;;;3.80;99.90;;;;;;6183667;23;20337;-81
2022/03/02 02:03:51;;;;;;;;;;;3.70;99.90;;;;;;6186396;23;20064;-82
2022/03/02 02:06:17;;;;;;;34.70;14.55;;;3.60;99.90;;;;;;6184227;23;20244;-83
2022/03/02 02:08:43;;;;;;;30.83;14.45;;;3.60;99.90;;;;;;6183252;23;20025;-82
2022/03/02 02:11:11;;;;;;;34.13;16.02;;;3.50;99.90;;;;;;6183243;23;20028;-82
2022/03/02 02:13:37;;;;;;;30.42;16.02;;;3.50;99.90;;;;;;6182723;23;20017;-83
2022/03/02 02:16:05;;;;;;;26.65;15.20;;;3.30;99.90;;;;;;6183649;23;20032;-83
2022/03/02 02:18:32;;;;;;;29.60;15.57;;;3.30;99.90;;;;;;6182499;23;20052;-83
2022/03/02 02:21:07;;;;;;;35.15;15.60;;;3.20;99.90;;;;;;6183629;23;20049;-83
2022/03/02 02:23:34;;;;;;;29.98;16.08;;;3.70;99.90;;;;;;6183749;23;20025;-82
2022/03/02 02:26:00;;;;;;;29.70;15.30;;;3.70;99.90;;;;;;6183186;23;20032;-83
2022/03/02 02:28:28;;;;;;;34.95;17.42;;;3.10;99.90;;;;;;6183162;23;20072;-83
2022/03/02 02:30:54;;;;;;;31.00;15.90;;;3.00;99.90;;;;;;6183216;23;20456;-83
2022/03/02 02:33:21;;;;;;;35.95;17.58;;;3.30;99.90;;;;;;6182161;23;20021;-83
2022/03/02 02:35:47;;;;;;;30.55;16.02;;;2.90;99.90;;;;;;6182861;23;20092;-84
2022/03/02 02:38:13;;;;;;;38.67;16.48;;;3.90;99.90;;;;;;6182747;23;20056;-83
2022/03/02 02:40:39;;;;;;;;;;;2.80;99.90;;;;;;6158434;23;20017;-84
2022/03/02 02:43:06;;;;;;;31.52;16.27;;;3.30;99.90;;;;;;6183016;23;19983;-83
2022/03/02 02:45:32;;;;;;;35.67;18.88;;;2.70;99.90;;;;;;6188410;23;20032;-83
2022/03/02 02:47:58;;;;;;;35.03;19.35;;;2.70;99.90;;;;;;6186691;23;20009;-83
2022/03/02 02:50:32;;;;;;;33.40;17.27;;;2.50;99.90;;;;;;6183477;23;20028;-83
2022/03/02 02:53:01;;;;;;;33.15;16.13;;;2.50;99.90;;;;;;6183031;23;20032;-83
2022/03/02 02:55:29;;;;;;;39.78;18.60;;;2.40;99.90;;;;;;6182448;23;20024;-83
2022/03/02 02:57:56;;;;;;;33.97;15.68;;;2.40;99.90;;;;;;6183307;23;20017;-82
2022/03/02 03:00:25;;;;;;;34.35;18.83;;;2.30;99.90;;;;;;6134010;23;20025;-82
2022/03/02 03:02:52;;;;;;;38.42;19.02;;;2.30;99.90;;;;;;6161536;23;20023;-83
2022/03/02 03:05:21;;;;;;;33.20;16.55;;;2.30;99.90;;;;;;6159460;23;20341;-83
2022/03/02 03:07:48;;;;;;;40.78;17.85;;;2.10;99.90;;;;;;6183465;23;20024;-83
2022/03/02 03:10:15;;;;;;;42.00;18.67;;;2.10;99.90;;;;;;6183296;23;20017;-84
2022/03/02 03:12:46;;;;;;;30.15;16.23;;;2.10;99.90;;;;;;6183398;23;20021;-83
2022/03/02 03:15:14;;;;;;;33.10;17.15;;;2.10;99.90;;;;;;6183807;23;20009;-81
2022/03/02 03:17:40;;;;;;;32.65;16.48;;;2.10;99.90;;;;;;6183446;23;20017;-82
2022/03/02 03:20:08;;;;;;;40.47;18.17;;;2.10;99.90;;;;;;6183344;23;20092;-83
2022/03/02 03:22:34;;;;;;;35.55;18.52;;;2.10;99.90;;;;;;6160524;23;20013;-82
2022/03/02 03:25:01;;;;;;;29.27;15.80;;;2.20;99.90;;;;;;6183307;23;20020;-81
2022/03/02 03:27:27;;;;;;;43.50;19.50;;;2.00;99.90;;;;;;6158038;23;20083;-83
2022/03/02 03:29:54;;;;;;;33.30;18.48;;;1.90;99.90;;;;;;6158625;23;20020;-82
2022/03/02 03:32:20;;;;;;;31.00;17.25;;;1.90;99.90;;;;;;6183236;23;20017;-82
2022/03/02 03:34:46;;;;;;;36.55;18.00;;;1.80;99.90;;;;;;6158143;23;20068;-82
2022/03/02 03:37:12;;;;;;;31.50;17.15;;;1.70;99.90;;;;;;6183364;23;20049;-82
2022/03/02 03:39:38;;;;;;;39.33;16.80;;;1.60;99.90;;;;;;6182606;23;20018;-82
2022/03/02 03:42:04;;;;;;;39.58;16.35;;;1.60;99.90;;;;;;6157824;23;20092;-83
2022/03/02 03:44:30;;;;;;;;;;;1.60;99.90;;;;;;6182034;23;20029;-82
2022/03/02 03:46:56;;;;;;;29.88;14.95;;;1.60;99.90;;;;;;6183180;23;19966;-82
2022/03/02 03:49:21;;;;;;;31.60;15.88;;;1.50;99.90;;;;;;6182082;23;20032;-83
2022/03/02 03:51:47;;;;;;;34.08;16.23;;;1.40;99.90;;;;;;6182481;23;20387;-82
2022/03/02 03:54:13;;;;;;;36.25;16.92;;;1.90;99.90;;;;;;6182335;23;20100;-82
2022/03/02 03:56:39;;;;;;;34.80;15.73;;;1.30;99.90;;;;;;6157623;23;20017;-82
2022/03/02 03:59:05;;;;;;;32.33;16.23;;;1.20;99.90;;;;;;6182283;23;20017;-83
2022/03/02 04:01:31;;;;;;;36.05;18.77;;;1.10;99.90;;;;;;6182110;23;20017;-82
2022/03/02 04:03:56;;;;;;;;;;;1.10;99.90;;;;;;6157907;23;20349;-82
2022/03/02 04:06:22;;;;;;;31.25;16.65;;;1.00;99.90;;;;;;6183089;23;19911;-82
2022/03/02 04:08:48;;;;;;;28.67;16.02;;;1.00;99.90;;;;;;6158322;23;20536;-82
2022/03/02 04:11:14;;;;;;;31.88;16.08;;;1.30;99.90;;;;;;6157746;23;20057;-81
2022/03/02 04:13:40;;;;;;;36.70;15.00;;;0.90;99.90;;;;;;6182335;23;20021;-83
2022/03/02 04:16:06;;;;;;;36.70;17.58;;;0.80;99.90;;;;;;6182663;23;20028;-83
2022/03/02 04:18:32;;;;;;;44.53;16.92;;;0.80;99.90;;;;;;6182386;23;20092;-83
2022/03/02 04:21:01;;;;;;;36.42;16.05;;;0.70;99.90;;;;;;6182410;23;20091;-82
2022/03/02 04:23:27;;;;;;;30.08;16.95;;;1.70;99.90;;;;;;6182460;23;20024;-82
2022/03/02 04:25:53;;;;;;;39.22;18.67;;;0.60;99.90;;;;;;6182269;23;20029;-82
2022/03/02 04:28:19;;;;;;;42.85;18.55;;;0.60;99.90;;;;;;6132626;23;20096;-83
2022/03/02 04:30:45;;;;;;;40.65;17.38;;;1.40;99.90;;;;;;6182184;23;20028;-83
2022/03/02 04:33:12;;;;;;;36.92;18.42;;;0.50;99.90;;;;;;6181770;23;20021;-82
2022/03/02 04:35:38;;;;;;;36.35;17.38;;;0.50;99.90;;;;;;6157170;23;20103;-83
2022/03/02 04:38:04;;;;;;;;;;;0.50;99.90;;;;;;6183419;23;20020;-84
2022/03/02 04:40:30;;;;;;;32.65;16.27;;;0.50;99.90;;;;;;6157401;23;19916;-83
2022/03/02 04:42:56;;;;;;;32.15;17.00;;;0.50;99.90;;;;;;6183206;23;20408;-83
2022/03/02 04:45:27;;;;;;;;;;;0.40;99.90;;;;;;6158153;23;20353;-84
2022/03/02 04:47:53;;;;;;;36.20;16.38;;;0.40;99.90;;;;;;6208386;23;19916;-82
2022/03/02 04:50:20;;;;;;;29.42;15.68;;;0.40;99.90;;;;;;6183942;23;20021;-83
2022/03/02 04:52:47;;;;;;;36.17;18.10;;;0.40;99.90;;;;;;6182774;23;20455;-83
2022/03/02 04:55:13;;;;;;;30.80;17.25;;;0.30;99.90;;;;;;6183113;23;20021;-82
2022/03/02 04:57:51;;;;;;;34.63;17.88;;;0.30;99.90;;;;;;6184169;23;20013;-82
2022/03/02 05:00:25;;;;;;;40.95;18.10;;;0.20;99.90;;;;;;6184282;23;20382;-82
2022/03/02 05:02:52;;;;;;;29.17;17.45;;;0.20;99.90;;;;;;6183970;23;20017;-82
2022/03/02 05:05:21;;;;;;;34.20;16.98;;;0.20;99.90;;;;;;6183355;23;20013;-81
2022/03/02 05:07:47;;;;;;;39.03;16.83;;;0.20;99.90;;;;;;6184562;23;20020;-84
2022/03/02 05:10:14;;;;;;;31.23;15.73;;;0.20;99.90;;;;;;6184568;23;20381;-83
2022/03/02 05:12:40;;;;;;;32.55;17.42;;;0.10;99.90;;;;;;6159063;23;20024;-82
2022/03/02 05:15:08;;;;;;;31.60;16.90;;;0.10;99.90;;;;;;6159373;23;20340;-83
2022/03/02 05:17:34;;;;;;;30.60;16.60;;;0.00;99.90;;;;;;6159063;23;20092;-83
2022/03/02 05:20:00;;;;;;;27.13;15.93;;;0.00;99.90;;;;;;6159305;23;20024;-82
2022/03/02 05:22:26;;;;;;;33.55;16.25;;;-0.10;99.90;;;;;;6159159;23;20017;-83
2022/03/02 05:24:52;;;;;;;22.67;15.40;;;-0.10;99.90;;;;;;6186054;23;20032;-83
2022/03/02 05:27:17;;;;;;;28.42;16.42;;;-0.10;99.90;;;;;;6159225;23;20036;-83
2022/03/02 05:29:43;;;;;;;28.58;15.60;;;-0.30;99.90;;;;;;6183915;23;20358;-82
2022/03/02 05:32:09;;;;;;;30.83;16.90;;;-0.30;99.90;;;;;;6134915;23;20027;-83
2022/03/02 05:34:35;;;;;;;35.42;16.95;;;-0.30;99.90;;;;;;6182258;23;20049;-83
2022/03/02 05:37:02;;;;;;;26.88;15.30;;;-0.40;99.90;;;;;;6208659;23;20021;-83
2022/03/02 05:39:29;;;;;;;36.20;15.75;;;-0.40;99.90;;;;;;6183684;23;20039;-84
2022/03/02 05:41:54;;;;;;;34.50;17.55;;;0.60;99.90;;;;;;6184037;23;20021;-83
2022/03/02 05:44:21;;;;;;;38.40;15.93;;;-0.30;99.90;;;;;;6183619;23;20035;-83
2022/03/02 05:46:48;;;;;;;32.67;16.35;;;-0.40;99.90;;;;;;6184077;23;20061;-83
2022/03/02 05:49:14;;;;;;;31.35;15.98;;;1.20;99.90;;;;;;6158416;23;20027;-84
2022/03/02 05:51:40;;;;;;;28.83;15.13;;;-0.50;99.90;;;;;;6184039;23;20098;-83
2022/03/02 05:54:08;;;;;;;;;;;-0.40;99.90;;;;;;6159798;23;20025;-83
2022/03/02 05:56:37;;;;;;;37.15;16.33;;;-0.60;99.90;;;;;;6158819;23;20317;-83
2022/03/02 05:59:06;;;;;;;29.70;16.75;;;-0.70;99.90;;;;;;6158876;23;20100;-83
2022/03/02 06:01:33;;;;;;;29.13;15.60;;;-0.70;99.90;;;;;;6134741;23;20095;-85
2022/03/02 06:03:59;;;;;;;37.65;17.33;;;-0.70;99.90;;;;;;6209747;23;20021;-84
2022/03/02 06:06:24;;;;;;;34.58;16.55;;;-0.70;99.90;;;;;;6183652;23;20352;-84
2022/03/02 06:08:50;;;;;;;32.35;17.52;;;0.90;99.90;;;;;;6183923;23;20021;-84
2022/03/02 06:11:17;;;;;;;29.17;17.55;;;-0.60;99.90;;;;;;6158711;23;20024;-83
2022/03/02 06:13:42;;;;;;;34.50;17.42;;;-0.50;99.90;;;;;;6181821;23;20031;-84
2022/03/02 06:16:08;;;;;;;30.85;16.92;;;-0.50;99.90;;;;;;6158074;23;20511;-84
2022/03/02 06:18:34;;;;;;;;;;;-0.50;99.90;;;;;;6181326;23;20009;-84
2022/03/02 06:21:01;;;;;;;26.80;14.82;;;-0.40;99.90;;;;;;6132747;23;20386;-84
2022/03/02 06:23:28;;;;;;;29.13;16.02;;;-0.40;99.90;;;;;;6186679;23;20025;-84
2022/03/02 06:25:54;;;;;;;38.53;18.17;;;-0.40;99.90;;;;;;6133223;23;20025;-84
2022/03/02 06:28:21;;;;;;;24.52;15.02;;;-0.40;99.90;;;;;;6159394;23;20021;-85
2022/03/02 06:30:47;;;;;;;37.45;18.50;;;-0.30;99.90;;;;;;6160561;23;20088;-84
2022/03/02 06:33:16;;;;;;;30.85;16.90;;;-0.30;99.90;;;;;;6181824;23;20033;-84
2022/03/02 06:35:41;;;;;;;28.50;17.27;;;-0.30;99.90;;;;;;6182666;23;20017;-84
2022/03/02 06:38:07;;;;;;;38.13;16.30;;;-0.20;99.90;;;;;;6182858;23;20091;-83
2022/03/02 06:40:33;;;;;;;;;;;-0.20;99.90;;;;;;6183172;23;20021;-84
2022/03/02 06:43:06;;;;;;;33.50;16.55;;;-0.10;99.90;;;;;;6183218;23;20282;-84
2022/03/02 06:45:53;;;;;;;29.40;18.02;;;-0.10;99.90;;;;;;6158026;23;20431;-84
2022/03/02 06:48:25;;;;;;;31.67;16.35;;;-0.10;99.90;;;;;;6181977;23;20496;-83
2022/03/02 06:50:53;;;;;;;32.58;16.83;;;-0.10;99.90;;;;;;6158228;23;20048;-83
2022/03/02 06:53:28;;;;;;;37.10;16.55;;;0.00;99.90;;;;;;6182810;23;20100;-83
2022/03/02 06:55:55;;;;;;;37.77;15.97;;;0.00;99.90;;;;;;6183362;23;20036;-84
2022/03/02 06:58:22;;;;;;;29.67;17.63;;;0.10;99.90;;;;;;6133966;23;20017;-84
2022/03/02 07:00:52;;;;;;;38.63;20.73;;;0.10;99.90;;;;;;6158913;23;20028;-84
2022/03/02 07:03:19;;;;;;;37.67;18.92;;;1.70;99.90;;;;;;6183254;23;20575;-84
2022/03/02 07:05:46;;;;;;;42.30;18.95;;;0.30;99.90;;;;;;6134390;23;20441;-84
2022/03/02 07:08:15;;;;;;;41.85;19.05;;;0.40;99.90;;;;;;6183808;23;20452;-84
2022/03/02 07:10:41;;;;;;;34.58;18.35;;;0.50;99.90;;;;;;6158683;23;20318;-84
2022/03/02 07:13:07;;;;;;;32.00;18.08;;;1.60;99.90;;;;;;6183314;23;20017;-84
2022/03/02 07:15:34;;;;;;;39.13;19.10;;;0.50;99.90;;;;;;6134418;23;20017;-84
2022/03/02 07:18:02;;;;;;;33.75;17.92;;;1.10;99.90;;;;;;6150191;23;20005;-83
2022/03/02 07:20:28;;;;;;;30.67;17.05;;;1.00;99.90;;;;;;6161763;23;20017;-83
2022/03/02 07:22:57;;;;;;;31.67;18.42;;;0.50;99.90;;;;;;6183640;23;20075;-84
2022/03/02 07:25:29;;;;;;;36.67;19.40;;;0.70;99.90;;;;;;6194536;23;20016;-83
2022/03/02 07:27:56;;;;;;;35.67;19.27;;;0.70;99.90;;;;;;6183713;23;20013;-83
2022/03/02 07:30:22;;;;;;;34.67;19.63;;;2.10;99.90;;;;;;6135636;23;20017;-83
2022/03/02 07:32:48;;;;;;;37.55;19.48;;;0.90;99.90;;;;;;6159093;23;20213;-83
2022/03/02 07:35:16;;;;;;;37.55;19.02;;;1.00;99.90;;;;;;6179739;23;20013;-83
2022/03/02 07:37:44;;;;;;;39.67;19.52;;;1.10;99.90;;;;;;6182658;23;20013;-84
2022/03/02 07:40:11;;;;;;;36.72;17.60;;;1.30;99.90;;;;;;6158348;23;20067;-83
2022/03/02 07:42:37;;;;;;;28.92;16.70;;;1.20;99.90;;;;;;6157839;23;20017;-83
2022/03/02 07:45:04;;;;;;;29.05;16.13;;;1.20;99.90;;;;;;6157889;23;20099;-84
2022/03/02 07:47:30;;;;;;;33.28;17.15;;;1.30;99.90;;;;;;6158133;23;20079;-84
2022/03/02 07:49:56;;;;;;;30.17;15.70;;;1.40;99.90;;;;;;6182944;23;20020;-84
2022/03/02 07:52:25;;;;;;;35.50;18.10;;;2.30;99.90;;;;;;6183207;23;20405;-84
2022/03/02 07:54:57;;;;;;;32.00;17.80;;;2.70;99.90;;;;;;6156360;23;20017;-84
2022/03/02 07:57:24;;;;;;;39.72;18.13;;;1.60;99.90;;;;;;6156853;23;20266;-84
2022/03/02 07:59:51;;;;;;;39.78;19.45;;;1.70;99.90;;;;;;6180908;23;20092;-84
2022/03/02 08:02:20;;;;;;;38.72;17.15;;;1.80;99.90;;;;;;6181528;23;20049;-84
2022/03/02 08:04:51;;;;;;;32.90;18.33;;;2.00;99.90;;;;;;6181143;23;20021;-84
2022/03/02 08:07:17;;;;;;;28.35;17.35;;;2.10;99.90;;;;;;6181437;23;20017;-84
2022/03/02 08:09:44;;;;;;;31.60;17.05;;;2.70;99.90;;;;;;6181167;23;20413;-84
2022/03/02 08:12:11;;;;;;;38.90;19.55;;;3.20;99.90;;;;;;6181393;23;20083;-84
2022/03/02 08:14:37;;;;;;;32.80;18.05;;;2.90;99.90;;;;;;6131548;23;20028;-84
2022/03/02 08:17:03;;;;;;;36.80;18.55;;;2.30;99.90;;;;;;6181084;23;20013;-84
2022/03/02 08:19:30;;;;;;;38.28;19.00;;;2.40;99.90;;;;;;6107652;23;20452;-84
2022/03/02 08:22:01;;;;;;;32.28;18.13;;;3.30;99.90;;;;;;6182245;23;20083;-85
2022/03/02 08:24:29;;;;;;;29.45;17.23;;;2.50;99.90;;;;;;6183040;23;20060;-84
2022/03/02 08:27:01;;;;;;;40.33;20.75;;;2.70;99.90;;;;;;6182242;23;20029;-84
2022/03/02 08:29:30;;;;;;;31.67;18.00;;;3.60;99.90;;;;;;6158123;23;20059;-84
2022/03/02 08:32:02;;;;;;;34.25;17.85;;;2.80;99.90;;;;;;6185084;23;20017;-84
2022/03/02 08:34:29;;;;;;;38.20;19.85;;;2.90;99.90;;;;;;6184536;23;20013;-84
2022/03/02 08:36:55;;;;;;;36.95;17.42;;;3.10;99.90;;;;;;6192492;23;20020;-84
2022/03/02 08:39:23;;;;;;;34.30;18.95;;;3.10;99.90;;;;;;6136594;23;20417;-84
2022/03/02 08:41:49;;;;;;;37.28;18.23;;;4.20;99.90;;;;;;6185047;23;20259;-84
2022/03/02 08:44:15;;;;;;;36.90;19.48;;;3.30;99.90;;;;;;6185095;23;20029;-84
2022/03/02 08:46:45;;;;;;;38.22;17.33;;;3.40;99.90;;;;;;6185657;23;20017;-84
2022/03/02 08:49:15;;;;;;;36.70;17.27;;;3.50;99.90;;;;;;6158924;23;20020;-84
2022/03/02 08:51:41;;;;;;;41.03;18.67;;;3.60;99.90;;;;;;6192514;23;20048;-84
2022/03/02 08:54:11;;;;;;;28.65;15.65;;;3.70;99.90;;;;;;6186507;23;20021;-83
2022/03/02 08:56:39;;;;;;;40.25;18.23;;;3.70;99.90;;;;;;6160093;23;20013;-84
2022/03/02 08:59:05;;;;;;;33.92;18.90;;;3.80;99.90;;;;;;6184879;23;20017;-84
2022/03/02 09:01:31;;;;;;;31.88;17.27;;;4.00;99.90;;;;;;6160082;23;20017;-84
2022/03/02 09:04:02;;;;;;;28.77;16.40;;;4.10;99.90;;;;;;6160472;23;20043;-84
2022/03/02 09:06:27;;;;;;;31.17;17.13;;;4.20;99.90;;;;;;6184964;23;20020;-84
2022/03/02 09:08:57;;;;;;;25.25;15.35;;;4.20;99.90;;;;;;6184966;23;20028;-84
2022/03/02 09:11:23;;;;;;;33.83;15.60;;;4.30;99.90;;;;;;6161104;23;20452;-83
2022/03/02 09:13:52;;;;;;;;;;;4.40;99.90;;;;;;6184902;23;20053;-84
2022/03/02 09:16:18;;;;;;;29.92;15.88;;;4.40;99.90;;;;;;6160869;23;19943;-84
2022/03/02 09:18:44;;;;;;;29.77;16.05;;;4.50;99.90;;;;;;6159875;23;20017;-84
2022/03/02 09:21:13;;;;;;;40.78;17.05;;;4.60;99.90;;;;;;6184898;23;20095;-84
2022/03/02 09:23:41;;;;;;;31.92;15.23;;;4.70;99.90;;;;;;6187602;23;20096;-83
2022/03/02 09:26:13;;;;;;;31.40;15.95;;;4.70;99.90;;;;;;6172226;23;20087;-84
2022/03/02 09:28:45;;;;;;;30.88;16.75;;;4.70;99.90;;;;;;6184732;23;20449;-84
2022/03/02 09:31:14;;;;;;;28.95;16.27;;;4.80;99.90;;;;;;6159854;23;20016;-84
2022/03/02 09:33:40;;;;;;;24.83;15.27;;;4.80;99.90;;;;;;6184141;23;20021;-83
2022/03/02 09:36:11;;;;;;;28.20;16.63;;;4.90;99.90;;;;;;6162933;23;20064;-84
2022/03/02 09:38:39;;;;;;;34.88;17.13;;;4.90;99.90;;;;;;6186510;23;20020;-83
2022/03/02 09:41:15;;;;;;;31.33;16.23;;;5.00;99.90;;;;;;6186276;23;20047;-85
2022/03/02 09:43:46;;;;;;;30.13;16.17;;;6.20;99.90;;;;;;6177094;23;20017;-83
2022/03/02 09:46:21;;;;;;;31.80;16.08;;;5.10;99.90;;;;;;6185124;23;20075;-84
2022/03/02 09:48:49;;;;;;;31.83;15.20;;;5.20;99.90;;;;;;6183712;23;20065;-83
2022/03/02 09:51:22;;;;;;;25.58;15.05;;;5.20;99.90;;;;;;6183746;23;20032;-83
2022/03/02 09:53:54;;;;;;;30.88;16.20;;;5.30;99.90;;;;;;6158728;23;20025;-84
2022/03/02 09:56:24;;;;;;;27.92;16.38;;;5.30;99.90;;;;;;6158957;23;20024;-84
2022/03/02 09:58:52;;;;;;;30.77;14.93;;;5.40;99.90;;;;;;6159161;23;20006;-84
2022/03/02 10:01:23;;;;;;;28.48;16.13;;;5.50;99.90;;;;;;6184177;23;20013;-84
2022/03/02 10:03:52;;;;;;;32.92;16.35;;;5.50;99.90;;;;;;6183980;23;20352;-83
2022/03/02 10:06:20;;;;;;;33.75;16.52;;;6.00;99.90;;;;;;6158676;23;20025;-84
2022/03/02 10:08:54;;;;;;;33.33;16.13;;;5.60;99.90;;;;;;6183337;23;20017;-84
2022/03/02 10:11:25;;;;;;;30.60;15.73;;;5.70;99.90;;;;;;6184159;23;20021;-84
2022/03/02 10:13:55;;;;;;;33.92;16.55;;;5.70;99.90;;;;;;6185040;23;20096;-85
2022/03/02 10:16:25;;;;;;;33.55;15.30;;;5.80;99.90;;;;;;6160375;23;20017;-84
2022/03/02 10:19:02;;;;;;;29.60;15.75;;;5.80;99.90;;;;;;6184678;23;20010;-84
2022/03/02 10:21:31;;;;;;;28.52;15.50;;;6.90;99.90;;;;;;6160001;23;20027;-84
2022/03/02 10:24:02;;;;;;;23.00;13.00;;;6.00;99.90;;;;;;6184476;23;20020;-84
2022/03/02 10:26:29;;;;;;;27.67;15.30;;;6.00;99.90;;;;;;6184652;23;20025;-84
2022/03/02 10:29:00;;;;;;;36.20;15.60;;;6.20;99.90;;;;;;6184704;23;20048;-84
2022/03/02 10:31:28;;;;;;;30.98;15.18;;;6.30;99.90;;;;;;6159960;23;20021;-84
2022/03/02 10:34:00;;;;;;;26.85;14.82;;;6.30;99.90;;;;;;6184417;23;20021;-84
2022/03/02 10:36:29;;;;;;;27.55;14.63;;;6.30;99.90;;;;;;6159792;23;20067;-84
2022/03/02 10:38:58;;;;;;;30.05;15.77;;;6.40;99.90;;;;;;6184458;23;20017;-84
2022/03/02 10:41:29;;;;;;;30.40;14.30;;;6.50;99.90;;;;;;6184564;23;20028;-84
2022/03/02 10:44:14;;;;;;;32.92;13.85;;;6.60;99.90;;;;;;6184590;23;20032;-84
2022/03/02 10:46:45;;;;;;;28.23;14.68;;;6.60;99.90;;;;;;6184649;23;20024;-84
2022/03/02 10:49:20;;;;;;;27.58;14.57;;;7.00;99.90;;;;;;6185126;23;20099;-84
2022/03/02 10:51:46;;;;;;;28.08;14.65;;;6.80;99.90;;;;;;6159919;23;20083;-84
2022/03/02 10:54:20;;;;;;;28.58;13.60;;;6.80;99.90;;;;;;6184936;23;20024;-84
2022/03/02 10:56:54;;;;;;;22.60;13.75;;;6.90;99.90;;;;;;6186306;23;20388;-84
2022/03/02 10:59:25;;;;;;;24.83;13.40;;;7.00;99.90;;;;;;6188519;23;20456;-84
2022/03/02 11:01:52;;;;;;;27.48;14.57;;;7.00;99.90;;;;;;6186528;23;20013;-84
2022/03/02 11:04:20;;;;;;;27.15;14.27;;;7.10;99.90;;;;;;6184475;23;20052;-84
2022/03/02 11:06:46;;;;;;;24.63;13.82;;;7.20;99.90;;;;;;6184866;23;20075;-84
2022/03/02 11:09:16;;;;;;;24.63;12.75;;;7.30;99.90;;;;;;6159683;23;20444;-84
2022/03/02 11:11:42;;;;;;;29.08;13.52;;;7.30;99.90;;;;;;6159384;23;20075;-84
2022/03/02 11:14:09;;;;;;;20.08;12.70;;;7.50;99.90;;;;;;6184334;23;20052;-85
2022/03/02 11:16:35;;;;;;;26.55;13.07;;;7.60;99.90;;;;;;6184471;23;20044;-85
2022/03/02 11:19:13;;;;;;;27.45;14.02;;;7.60;99.90;;;;;;6158758;23;20012;-84
2022/03/02 11:21:41;;;;;;;21.45;12.13;;;7.70;99.90;;;;;;6184889;23;20075;-84
2022/03/02 11:24:09;;;;;;;23.23;13.02;;;7.80;99.90;;;;;;6159721;23;20017;-84
2022/03/02 11:26:46;;;;;;;24.38;13.32;;;7.80;99.90;;;;;;6184435;23;20021;-84
2022/03/02 11:29:27;;;;;;;34.95;12.85;;;7.90;99.90;;;;;;6188816;23;20017;-84
2022/03/02 11:31:57;;;;;;;22.52;12.32;;;7.90;99.90;;;;;;6184807;23;20209;-84
2022/03/02 11:34:29;;;;;;;28.98;13.38;;;8.00;99.90;;;;;;6160386;23;20448;-86
2022/03/02 11:36:57;;;;;;;24.88;13.23;;;8.00;99.90;;;;;;6197331;23;20017;-84
2022/03/02 11:39:25;;;;;;;21.83;11.50;;;8.10;99.90;;;;;;6184388;23;20080;-84
2022/03/02 11:41:53;;;;;;;24.65;10.98;;;8.20;99.90;;;;;;6184378;23;20013;-84
2022/03/02 11:44:29;;;;;;;22.75;11.65;;;8.30;99.90;;;;;;6183545;23;20025;-84
2022/03/02 11:46:55;;;;;;;18.98;11.95;;;8.30;99.90;;;;;;6184533;23;20023;-84
2022/03/02 11:49:21;;;;;;;23.02;11.23;;;8.30;99.90;;;;;;6159251;23;20017;-84
2022/03/02 11:52:04;;;;;;;22.65;11.00;;;8.40;99.90;;;;;;6183713;23;20017;-84
2022/03/02 11:55:00;;;;;;;19.70;10.95;;;8.50;99.90;;;;;;6183800;23;20017;-84
2022/03/02 11:57:39;;;;;;;20.27;12.15;;;8.50;99.90;;;;;;6141054;23;20444;-84
2022/03/02 12:00:10;;;;;;;29.13;12.43;;;8.50;99.90;;;;;;6184126;23;20013;-84
2022/03/02 12:02:43;;;;;;;18.20;11.65;;;8.60;99.90;;;;;;6159331;23;20044;-84
2022/03/02 12:05:09;;;;;;;21.63;12.38;;;8.70;99.90;;;;;;6184388;23;20024;-84
2022/03/02 12:07:49;;;;;;;19.90;11.90;;;8.70;99.90;;;;;;6186298;23;20025;-85
2022/03/02 12:10:24;;;;;;;19.45;11.52;;;8.70;99.90;;;;;;6137098;23;20079;-85
2022/03/02 12:12:52;;;;;;;22.50;10.75;;;8.70;99.90;;;;;;6185733;23;20023;-85
2022/03/02 12:15:20;;;;;;;17.77;11.35;;;8.80;99.90;;;;;;6186668;23;20017;-84
2022/03/02 12:17:46;;;;;;;22.63;12.40;;;8.90;99.90;;;;;;6186299;23;20017;-84
2022/03/02 12:20:18;;;;;;;22.77;12.70;;;8.90;99.90;;;;;;6185767;23;20013;-84
2022/03/02 12:22:50;;;;;;;21.20;11.38;;;8.90;99.90;;;;;;6186621;23;20071;-84
2022/03/02 12:25:22;;;;;;;25.50;11.15;;;9.00;99.90;;;;;;6161072;23;20017;-85
2022/03/02 12:28:05;;;;;;;25.80;11.90;;;9.00;99.90;;;;;;6185847;23;20024;-85
2022/03/02 12:30:36;;;;;;;21.73;11.35;;;9.10;99.90;;;;;;6186602;23;20024;-87
2022/03/02 12:33:04;;;;;;;18.13;10.80;;;9.20;99.90;;;;;;6185465;23;20017;-84
2022/03/02 12:35:30;;;;;;;19.75;11.52;;;9.20;99.90;;;;;;6167329;23;20017;-83
2022/03/02 12:38:05;;;;;;;20.85;12.07;;;9.20;99.90;;;;;;6136499;23;20017;-85
2022/03/02 12:40:38;;;;;;;20.92;10.73;;;9.30;99.90;;;;;;6186263;23;20013;-84
2022/03/02 12:43:04;;;;;;;23.50;12.43;;;9.30;99.90;;;;;;6163317;23;20348;-86
2022/03/02 12:45:30;;;;;;;22.30;11.48;;;9.40;99.90;;;;;;6161001;23;20021;-84